sensor_id;sensor_type;location;lat;lon;timestamp;temperature;humidity
9125;DHT22;4597;48.730;9.114;2023-08-21T00:01:30;24.90;99.90
9125;DHT22;4597;48.730;9.114;2023-08-21T00:03:55;24.90;99.90
9125;DHT22;4597;48.730;9.114;2023-08-21T00:06:22;24.90;99.90
9125;DHT22;4597;48.730;9.114;2023-08-21T00:08:47;24.80;99.90
9125;DHT22;4597;48.730;9.114;2023-08-21T00:11:13;24.80;99.90
9125;DHT22;4597;48.730;9.114;2023-08-21T00:13:38;24.80;99.90
9125;DHT22;4597;48.730;9.114;2023-08-21T00:16:04;24.80;99.90
9125;DHT22;4597;48.730;9.114;2023-08-21T00:18:29;24.70;99.90
9125;DHT22;4597;48.730;9.114;2023-08-21T00:20:55;24.70;99.90
9125;DHT22;4597;48.730;9.114;2023-08-21T00:23:21;24.70;99.90
9125;DHT22;4597;48.730;9.114;2023-08-21T00:25:47;24.60;99.90
9125;DHT22;4597;48.730;9.114;2023-08-21T00:28:13;24.60;99.90
9125;DHT22;4597;48.730;9.114;2023-08-21T00:30:39;24.50;99.90
9125;DHT22;4597;48.730;9.114;2023-08-21T00:33:04;24.50;99.90
9125;DHT22;4597;48.730;9.114;2023-08-21T00:35:30;24.40;99.90
9125;DHT22;4597;48.730;9.114;2023-08-21T00:37:55;24.40;99.90
9125;DHT22;4597;48.730;9.114;2023-08-21T00:40:21;24.40;99.90
9125;DHT22;4597;48.730;9.114;2023-08-21T00:42:46;24.40;99.90
9125;DHT22;4597;48.730;9.114;2023-08-21T00:45:12;24.30;99.90
9125;DHT22;4597;48.730;9.114;2023-08-21T00:47:37;24.30;99.90
9125;DHT22;4597;48.730;9.114;2023-08-21T00:50:06;24.40;99.90
9125;DHT22;4597;48.730;9.114;2023-08-21T00:52:32;24.30;99.90
9125;DHT22;4597;48.730;9.114;2023-08-21T00:54:58;24.30;99.90
9125;DHT22;4597;48.730;9.114;2023-08-21T00:57:24;24.20;99.90
9125;DHT22;4597;48.730;9.114;2023-08-21T00:59:50;24.20;99.90
9125;DHT22;4597;48.730;9.114;2023-08-21T01:02:16;24.20;99.90
9125;DHT22;4597;48.730;9.114;2023-08-21T01:04:43;24.10;99.90
9125;DHT22;4597;48.730;9.114;2023-08-21T01:07:09;24.10;99.90
9125;DHT22;4597;48.730;9.114;2023-08-21T01:10:10;24.10;99.90
9125;DHT22;4597;48.730;9.114;2023-08-21T01:12:43;24.00;99.90
9125;DHT22;4597;48.730;9.114;2023-08-21T01:15:14;24.00;99.90
9125;DHT22;4597;48.730;9.114;2023-08-21T01:17:40;24.00;99.90
9125;DHT22;4597;48.730;9.114;2023-08-21T01:20:07;24.00;99.90
9125;DHT22;4597;48.730;9.114;2023-08-21T01:22:40;24.00;99.90
9125;DHT22;4597;48.730;9.114;2023-08-21T01:25:07;24.00;99.90
9125;DHT22;4597;48.730;9.114;2023-08-21T01:27:34;23.90;99.90
9125;DHT22;4597;48.730;9.114;2023-08-21T01:30:01;23.90;99.90
9125;DHT22;4597;48.730;9.114;2023-08-21T01:35:04;23.80;99.90
9125;DHT22;4597;48.730;9.114;2023-08-21T01:37:31;23.80;99.90
9125;DHT22;4597;48.730;9.114;2023-08-21T01:39:59;23.70;99.90
9125;DHT22;4597;48.730;9.114;2023-08-21T01:42:25;23.70;99.90
9125;DHT22;4597;48.730;9.114;2023-08-21T01:44:50;23.70;99.90
9125;DHT22;4597;48.730;9.114;2023-08-21T01:47:16;23.60;99.90
9125;DHT22;4597;48.730;9.114;2023-08-21T01:49:41;23.60;99.90
9125;DHT22;4597;48.730;9.114;2023-08-21T01:52:07;23.60;99.90
9125;DHT22;4597;48.730;9.114;2023-08-21T01:54:32;23.50;99.90
9125;DHT22;4597;48.730;9.114;2023-08-21T01:56:58;23.50;99.90
9125;DHT22;4597;48.730;9.114;2023-08-21T01:59:24;23.50;99.90
9125;DHT22;4597;48.730;9.114;2023-08-21T02:01:49;23.50;99.90
9125;DHT22;4597;48.730;9.114;2023-08-21T02:04:15;23.50;99.90
9125;DHT22;4597;48.730;9.114;2023-08-21T02:06:40;23.50;99.90
9125;DHT22;4597;48.730;9.114;2023-08-21T02:09:06;23.40;99.90
9125;DHT22;4597;48.730;9.114;2023-08-21T02:11:32;23.40;99.90
9125;DHT22;4597;48.730;9.114;2023-08-21T02:13:57;23.40;99.90
9125;DHT22;4597;48.730;9.114;2023-08-21T02:16:23;23.30;99.90
9125;DHT22;4597;48.730;9.114;2023-08-21T02:18:48;23.30;99.90
9125;DHT22;4597;48.730;9.114;2023-08-21T02:21:14;23.30;99.90
9125;DHT22;4597;48.730;9.114;2023-08-21T02:23:39;23.30;99.90
9125;DHT22;4597;48.730;9.114;2023-08-21T02:26:05;23.30;99.90
9125;DHT22;4597;48.730;9.114;2023-08-21T02:28:30;23.30;99.90
9125;DHT22;4597;48.730;9.114;2023-08-21T02:30:56;23.20;99.90
9125;DHT22;4597;48.730;9.114;2023-08-21T02:33:21;23.20;99.90
9125;DHT22;4597;48.730;9.114;2023-08-21T02:35:47;23.20;99.90
9125;DHT22;4597;48.730;9.114;2023-08-21T02:38:12;23.20;99.90
9125;DHT22;4597;48.730;9.114;2023-08-21T02:40:38;23.20;99.90
9125;DHT22;4597;48.730;9.114;2023-08-21T02:43:04;23.10;99.90
9125;DHT22;4597;48.730;9.114;2023-08-21T02:45:30;23.10;99.90
9125;DHT22;4597;48.730;9.114;2023-08-21T02:47:55;23.10;99.90
9125;DHT22;4597;48.730;9.114;2023-08-21T02:50:21;23.10;99.90
9125;DHT22;4597;48.730;9.114;2023-08-21T02:52:47;23.00;99.90
9125;DHT22;4597;48.730;9.114;2023-08-21T02:55:12;23.00;99.90
9125;DHT22;4597;48.730;9.114;2023-08-21T02:57:39;23.00;99.90
9125;DHT22;4597;48.730;9.114;2023-08-21T03:00:05;23.00;99.90
9125;DHT22;4597;48.730;9.114;2023-08-21T03:02:33;22.90;99.90
9125;DHT22;4597;48.730;9.114;2023-08-21T03:04:58;22.90;99.90
9125;DHT22;4597;48.730;9.114;2023-08-21T03:07:24;22.90;99.90
9125;DHT22;4597;48.730;9.114;2023-08-21T03:09:50;22.90;99.90
9125;DHT22;4597;48.730;9.114;2023-08-21T03:12:16;22.80;99.90
9125;DHT22;4597;48.730;9.114;2023-08-21T03:14:41;22.80;99.90
9125;DHT22;4597;48.730;9.114;2023-08-21T03:17:07;22.80;99.90
9125;DHT22;4597;48.730;9.114;2023-08-21T03:19:33;22.80;99.90
9125;DHT22;4597;48.730;9.114;2023-08-21T03:21:58;22.70;99.90
9125;DHT22;4597;48.730;9.114;2023-08-21T03:24:24;22.70;99.90
9125;DHT22;4597;48.730;9.114;2023-08-21T03:26:49;22.80;99.90
9125;DHT22;4597;48.730;9.114;2023-08-21T03:29:15;22.80;99.90
9125;DHT22;4597;48.730;9.114;2023-08-21T03:31:40;22.70;99.90
9125;DHT22;4597;48.730;9.114;2023-08-21T03:34:06;22.70;99.90
9125;DHT22;4597;48.730;9.114;2023-08-21T03:36:31;22.70;99.90
9125;DHT22;4597;48.730;9.114;2023-08-21T03:38:58;22.60;99.90
9125;DHT22;4597;48.730;9.114;2023-08-21T03:41:24;22.60;99.90
9125;DHT22;4597;48.730;9.114;2023-08-21T03:43:49;22.60;99.90
9125;DHT22;4597;48.730;9.114;2023-08-21T03:46:15;22.60;99.90
9125;DHT22;4597;48.730;9.114;2023-08-21T03:48:40;22.60;99.90
9125;DHT22;4597;48.730;9.114;2023-08-21T03:51:06;22.60;99.90
9125;DHT22;4597;48.730;9.114;2023-08-21T03:53:31;22.60;99.90
9125;DHT22;4597;48.730;9.114;2023-08-21T03:55:57;22.60;99.90
9125;DHT22;4597;48.730;9.114;2023-08-21T03:58:22;22.50;99.90
9125;DHT22;4597;48.730;9.114;2023-08-21T04:00:48;22.50;99.90
9125;DHT22;4597;48.730;9.114;2023-08-21T04:03:13;22.50;99.90
9125;DHT22;4597;48.730;9.114;2023-08-21T04:05:39;22.50;99.90
9125;DHT22;4597;48.730;9.114;2023-08-21T04:08:04;22.50;99.90
9125;DHT22;4597;48.730;9.114;2023-08-21T04:10:30;22.40;99.90
9125;DHT22;4597;48.730;9.114;2023-08-21T04:12:56;22.40;99.90
9125;DHT22;4597;48.730;9.114;2023-08-21T04:15:21;22.30;99.90
9125;DHT22;4597;48.730;9.114;2023-08-21T04:17:47;22.30;99.90
9125;DHT22;4597;48.730;9.114;2023-08-21T04:20:12;22.30;99.90
9125;DHT22;4597;48.730;9.114;2023-08-21T04:22:38;22.30;99.90
9125;DHT22;4597;48.730;9.114;2023-08-21T04:25:03;22.30;99.90
9125;DHT22;4597;48.730;9.114;2023-08-21T04:27:29;22.30;99.90
9125;DHT22;4597;48.730;9.114;2023-08-21T04:29:54;22.30;99.90
9125;DHT22;4597;48.730;9.114;2023-08-21T04:32:20;22.20;99.90
9125;DHT22;4597;48.730;9.114;2023-08-21T04:34:46;22.20;99.90
9125;DHT22;4597;48.730;9.114;2023-08-21T04:37:12;22.10;99.90
9125;DHT22;4597;48.730;9.114;2023-08-21T04:39:37;22.10;99.90
9125;DHT22;4597;48.730;9.114;2023-08-21T04:42:03;22.10;99.90
9125;DHT22;4597;48.730;9.114;2023-08-21T04:44:30;22.10;99.90
9125;DHT22;4597;48.730;9.114;2023-08-21T04:46:55;22.00;99.90
9125;DHT22;4597;48.730;9.114;2023-08-21T04:49:21;22.10;99.90
9125;DHT22;4597;48.730;9.114;2023-08-21T04:51:46;22.10;99.90
9125;DHT22;4597;48.730;9.114;2023-08-21T04:54:12;22.00;99.90
9125;DHT22;4597;48.730;9.114;2023-08-21T04:56:37;22.10;99.90
9125;DHT22;4597;48.730;9.114;2023-08-21T04:59:03;22.00;99.90
9125;DHT22;4597;48.730;9.114;2023-08-21T05:01:28;22.00;99.90
9125;DHT22;4597;48.730;9.114;2023-08-21T05:03:54;22.10;99.90
9125;DHT22;4597;48.730;9.114;2023-08-21T05:06:20;22.00;99.90
9125;DHT22;4597;48.730;9.114;2023-08-21T05:08:45;22.10;99.90
9125;DHT22;4597;48.730;9.114;2023-08-21T05:11:11;22.10;99.90
9125;DHT22;4597;48.730;9.114;2023-08-21T05:13:36;22.10;99.90
9125;DHT22;4597;48.730;9.114;2023-08-21T05:16:02;22.10;99.90
9125;DHT22;4597;48.730;9.114;2023-08-21T05:18:28;22.10;99.90
9125;DHT22;4597;48.730;9.114;2023-08-21T05:20:55;22.20;99.90
9125;DHT22;4597;48.730;9.114;2023-08-21T05:23:20;22.20;99.90
9125;DHT22;4597;48.730;9.114;2023-08-21T05:25:48;22.20;99.90
9125;DHT22;4597;48.730;9.114;2023-08-21T05:28:14;22.10;99.90
9125;DHT22;4597;48.730;9.114;2023-08-21T05:30:40;22.20;99.90
9125;DHT22;4597;48.730;9.114;2023-08-21T05:33:06;22.10;99.90
9125;DHT22;4597;48.730;9.114;2023-08-21T05:35:35;22.20;99.90
9125;DHT22;4597;48.730;9.114;2023-08-21T05:38:04;22.20;99.90
9125;DHT22;4597;48.730;9.114;2023-08-21T05:40:29;22.20;99.90
9125;DHT22;4597;48.730;9.114;2023-08-21T05:42:55;22.20;99.90
9125;DHT22;4597;48.730;9.114;2023-08-21T05:45:20;22.20;99.90
9125;DHT22;4597;48.730;9.114;2023-08-21T05:47:46;22.20;99.90
9125;DHT22;4597;48.730;9.114;2023-08-21T05:50:11;22.20;99.90
9125;DHT22;4597;48.730;9.114;2023-08-21T05:52:37;22.20;99.90
9125;DHT22;4597;48.730;9.114;2023-08-21T05:55:03;22.20;99.90
9125;DHT22;4597;48.730;9.114;2023-08-21T05:57:29;22.20;99.90
9125;DHT22;4597;48.730;9.114;2023-08-21T05:59:54;22.20;99.90
9125;DHT22;4597;48.730;9.114;2023-08-21T06:02:20;22.30;99.90
9125;DHT22;4597;48.730;9.114;2023-08-21T06:04:45;22.30;99.90
9125;DHT22;4597;48.730;9.114;2023-08-21T06:07:11;22.30;99.90
9125;DHT22;4597;48.730;9.114;2023-08-21T06:09:37;22.30;99.90
9125;DHT22;4597;48.730;9.114;2023-08-21T06:12:03;22.30;99.90
9125;DHT22;4597;48.730;9.114;2023-08-21T06:14:29;22.40;99.90
9125;DHT22;4597;48.730;9.114;2023-08-21T06:16:56;22.40;99.90
9125;DHT22;4597;48.730;9.114;2023-08-21T06:19:22;22.40;99.90
9125;DHT22;4597;48.730;9.114;2023-08-21T06:21:47;22.50;99.90
9125;DHT22;4597;48.730;9.114;2023-08-21T06:24:13;22.50;99.90
9125;DHT22;4597;48.730;9.114;2023-08-21T06:26:39;22.50;99.90
9125;DHT22;4597;48.730;9.114;2023-08-21T06:29:05;22.50;99.90
9125;DHT22;4597;48.730;9.114;2023-08-21T06:31:31;22.60;99.90
9125;DHT22;4597;48.730;9.114;2023-08-21T06:33:56;22.60;99.90
9125;DHT22;4597;48.730;9.114;2023-08-21T06:36:22;22.70;99.90
9125;DHT22;4597;48.730;9.114;2023-08-21T06:38:48;22.70;99.90
9125;DHT22;4597;48.730;9.114;2023-08-21T06:41:13;22.80;99.90
9125;DHT22;4597;48.730;9.114;2023-08-21T06:43:39;22.80;99.90
9125;DHT22;4597;48.730;9.114;2023-08-21T06:46:04;22.90;99.90
9125;DHT22;4597;48.730;9.114;2023-08-21T06:48:30;22.90;99.90
9125;DHT22;4597;48.730;9.114;2023-08-21T06:50:56;22.90;99.90
9125;DHT22;4597;48.730;9.114;2023-08-21T06:53:22;22.90;99.90
9125;DHT22;4597;48.730;9.114;2023-08-21T06:55:47;22.90;99.90
9125;DHT22;4597;48.730;9.114;2023-08-21T06:58:13;23.00;99.90
9125;DHT22;4597;48.730;9.114;2023-08-21T07:00:39;23.00;99.90
9125;DHT22;4597;48.730;9.114;2023-08-21T07:03:04;23.00;99.90
9125;DHT22;4597;48.730;9.114;2023-08-21T07:05:33;23.00;99.90
9125;DHT22;4597;48.730;9.114;2023-08-21T07:07:59;23.10;99.90
9125;DHT22;4597;48.730;9.114;2023-08-21T07:10:24;23.10;99.90
9125;DHT22;4597;48.730;9.114;2023-08-21T07:12:50;23.20;99.90
9125;DHT22;4597;48.730;9.114;2023-08-21T07:15:16;23.20;99.90
9125;DHT22;4597;48.730;9.114;2023-08-21T07:17:41;23.20;99.90
9125;DHT22;4597;48.730;9.114;2023-08-21T07:20:07;23.20;99.90
9125;DHT22;4597;48.730;9.114;2023-08-21T07:22:33;23.30;99.90
9125;DHT22;4597;48.730;9.114;2023-08-21T07:24:58;23.30;99.90
9125;DHT22;4597;48.730;9.114;2023-08-21T07:27:26;23.40;99.90
9125;DHT22;4597;48.730;9.114;2023-08-21T07:29:51;23.50;99.90
9125;DHT22;4597;48.730;9.114;2023-08-21T07:32:17;23.50;99.90
9125;DHT22;4597;48.730;9.114;2023-08-21T07:34:42;23.60;99.90
9125;DHT22;4597;48.730;9.114;2023-08-21T07:37:08;23.70;99.90
9125;DHT22;4597;48.730;9.114;2023-08-21T07:39:34;23.80;99.90
9125;DHT22;4597;48.730;9.114;2023-08-21T07:42:00;23.80;99.90
9125;DHT22;4597;48.730;9.114;2023-08-21T07:44:26;23.90;99.90
9125;DHT22;4597;48.730;9.114;2023-08-21T07:46:52;24.00;99.90
9125;DHT22;4597;48.730;9.114;2023-08-21T07:49:17;24.00;99.90
9125;DHT22;4597;48.730;9.114;2023-08-21T07:51:43;24.10;99.90
9125;DHT22;4597;48.730;9.114;2023-08-21T07:54:08;24.10;99.90
9125;DHT22;4597;48.730;9.114;2023-08-21T07:56:36;24.10;99.90
9125;DHT22;4597;48.730;9.114;2023-08-21T07:59:02;24.20;99.90
9125;DHT22;4597;48.730;9.114;2023-08-21T08:01:28;24.20;99.90
9125;DHT22;4597;48.730;9.114;2023-08-21T08:03:54;24.20;99.90
9125;DHT22;4597;48.730;9.114;2023-08-21T08:06:19;24.30;99.90
9125;DHT22;4597;48.730;9.114;2023-08-21T08:08:45;24.40;99.90
9125;DHT22;4597;48.730;9.114;2023-08-21T08:11:11;24.40;99.90
9125;DHT22;4597;48.730;9.114;2023-08-21T08:13:36;24.40;99.90
9125;DHT22;4597;48.730;9.114;2023-08-21T08:16:02;24.50;99.90
9125;DHT22;4597;48.730;9.114;2023-08-21T08:18:27;24.60;99.90
9125;DHT22;4597;48.730;9.114;2023-08-21T08:20:53;24.70;99.90
9125;DHT22;4597;48.730;9.114;2023-08-21T08:23:20;24.70;99.90
9125;DHT22;4597;48.730;9.114;2023-08-21T08:25:45;24.80;99.90
9125;DHT22;4597;48.730;9.114;2023-08-21T08:28:11;24.80;99.90
9125;DHT22;4597;48.730;9.114;2023-08-21T08:30:36;24.90;99.90
9125;DHT22;4597;48.730;9.114;2023-08-21T08:33:02;24.90;99.90
9125;DHT22;4597;48.730;9.114;2023-08-21T08:35:27;24.90;99.90
9125;DHT22;4597;48.730;9.114;2023-08-21T08:37:53;25.00;99.90
9125;DHT22;4597;48.730;9.114;2023-08-21T08:40:19;25.10;99.90
9125;DHT22;4597;48.730;9.114;2023-08-21T08:42:44;25.10;99.90
9125;DHT22;4597;48.730;9.114;2023-08-21T08:45:12;25.10;99.90
9125;DHT22;4597;48.730;9.114;2023-08-21T08:47:38;25.20;99.90
9125;DHT22;4597;48.730;9.114;2023-08-21T08:50:06;25.20;99.90
9125;DHT22;4597;48.730;9.114;2023-08-21T08:52:38;25.30;99.90
9125;DHT22;4597;48.730;9.114;2023-08-21T08:55:04;25.40;99.90
9125;DHT22;4597;48.730;9.114;2023-08-21T08:57:32;25.40;99.90
9125;DHT22;4597;48.730;9.114;2023-08-21T08:59:57;25.40;99.90
9125;DHT22;4597;48.730;9.114;2023-08-21T09:02:25;25.50;99.90
9125;DHT22;4597;48.730;9.114;2023-08-21T09:04:52;25.60;99.90
9125;DHT22;4597;48.730;9.114;2023-08-21T09:07:18;25.70;99.90
9125;DHT22;4597;48.730;9.114;2023-08-21T09:09:46;25.70;99.90
9125;DHT22;4597;48.730;9.114;2023-08-21T09:12:14;25.70;99.90
9125;DHT22;4597;48.730;9.114;2023-08-21T09:14:40;25.80;99.90
9125;DHT22;4597;48.730;9.114;2023-08-21T09:17:07;25.90;99.90
9125;DHT22;4597;48.730;9.114;2023-08-21T09:19:32;26.00;99.90
9125;DHT22;4597;48.730;9.114;2023-08-21T09:21:58;26.00;99.90
9125;DHT22;4597;48.730;9.114;2023-08-21T09:24:24;26.10;99.90
9125;DHT22;4597;48.730;9.114;2023-08-21T09:26:50;26.10;99.90
9125;DHT22;4597;48.730;9.114;2023-08-21T09:29:16;26.20;99.90
9125;DHT22;4597;48.730;9.114;2023-08-21T09:31:42;26.20;99.90
9125;DHT22;4597;48.730;9.114;2023-08-21T09:34:10;26.30;99.90
9125;DHT22;4597;48.730;9.114;2023-08-21T09:36:38;26.40;99.90
9125;DHT22;4597;48.730;9.114;2023-08-21T09:39:04;26.50;99.90
9125;DHT22;4597;48.730;9.114;2023-08-21T09:41:31;26.50;99.90
9125;DHT22;4597;48.730;9.114;2023-08-21T09:44:00;26.60;99.90
9125;DHT22;4597;48.730;9.114;2023-08-21T09:46:27;26.60;99.90
9125;DHT22;4597;48.730;9.114;2023-08-21T09:48:53;26.60;99.90
9125;DHT22;4597;48.730;9.114;2023-08-21T09:51:20;26.70;99.90
9125;DHT22;4597;48.730;9.114;2023-08-21T09:53:48;26.80;99.90
9125;DHT22;4597;48.730;9.114;2023-08-21T09:56:14;26.90;99.90
9125;DHT22;4597;48.730;9.114;2023-08-21T09:58:40;27.00;99.90
9125;DHT22;4597;48.730;9.114;2023-08-21T10:01:06;27.00;99.90
9125;DHT22;4597;48.730;9.114;2023-08-21T10:03:43;27.00;99.90
9125;DHT22;4597;48.730;9.114;2023-08-21T10:06:16;27.10;99.90
9125;DHT22;4597;48.730;9.114;2023-08-21T10:08:46;27.10;99.90
9125;DHT22;4597;48.730;9.114;2023-08-21T10:11:13;27.10;99.90
9125;DHT22;4597;48.730;9.114;2023-08-21T10:13:39;27.20;99.90
9125;DHT22;4597;48.730;9.114;2023-08-21T10:16:06;27.30;99.90
9125;DHT22;4597;48.730;9.114;2023-08-21T10:18:35;27.30;99.90
9125;DHT22;4597;48.730;9.114;2023-08-21T10:21:15;27.30;99.90
9125;DHT22;4597;48.730;9.114;2023-08-21T10:23:41;27.40;99.90
9125;DHT22;4597;48.730;9.114;2023-08-21T10:26:09;27.40;99.90
9125;DHT22;4597;48.730;9.114;2023-08-21T10:29:01;27.50;99.90
9125;DHT22;4597;48.730;9.114;2023-08-21T10:31:41;27.50;99.90
9125;DHT22;4597;48.730;9.114;2023-08-21T10:34:12;27.60;99.90
9125;DHT22;4597;48.730;9.114;2023-08-21T10:39:20;27.80;99.90
9125;DHT22;4597;48.730;9.114;2023-08-21T10:47:23;28.00;99.90
9125;DHT22;4597;48.730;9.114;2023-08-21T10:49:58;28.10;99.90
9125;DHT22;4597;48.730;9.114;2023-08-21T10:54:55;28.20;99.90
9125;DHT22;4597;48.730;9.114;2023-08-21T10:57:25;28.30;99.90
9125;DHT22;4597;48.730;9.114;2023-08-21T10:59:53;28.40;99.90
9125;DHT22;4597;48.730;9.114;2023-08-21T11:02:19;28.50;99.90
9125;DHT22;4597;48.730;9.114;2023-08-21T11:04:45;28.50;99.90
9125;DHT22;4597;48.730;9.114;2023-08-21T11:07:11;28.70;99.90
9125;DHT22;4597;48.730;9.114;2023-08-21T11:09:38;28.80;99.90
9125;DHT22;4597;48.730;9.114;2023-08-21T11:12:08;28.90;99.90
9125;DHT22;4597;48.730;9.114;2023-08-21T11:14:34;29.00;99.90
9125;DHT22;4597;48.730;9.114;2023-08-21T11:17:01;29.10;99.90
9125;DHT22;4597;48.730;9.114;2023-08-21T11:19:26;29.20;99.90
9125;DHT22;4597;48.730;9.114;2023-08-21T11:21:52;29.30;99.90
9125;DHT22;4597;48.730;9.114;2023-08-21T11:24:17;29.30;99.90
9125;DHT22;4597;48.730;9.114;2023-08-21T11:26:43;29.40;99.90
9125;DHT22;4597;48.730;9.114;2023-08-21T11:29:08;29.40;99.90
9125;DHT22;4597;48.730;9.114;2023-08-21T11:31:34;29.50;99.90
9125;DHT22;4597;48.730;9.114;2023-08-21T11:34:00;29.60;99.90
9125;DHT22;4597;48.730;9.114;2023-08-21T11:36:25;29.70;99.90
9125;DHT22;4597;48.730;9.114;2023-08-21T11:39:01;29.90;99.90
9125;DHT22;4597;48.730;9.114;2023-08-21T11:41:28;30.00;99.40
9125;DHT22;4597;48.730;9.114;2023-08-21T11:44:01;30.00;99.90
9125;DHT22;4597;48.730;9.114;2023-08-21T11:46:27;30.20;99.90
9125;DHT22;4597;48.730;9.114;2023-08-21T11:48:53;30.30;99.90
9125;DHT22;4597;48.730;9.114;2023-08-21T11:51:19;30.40;99.30
9125;DHT22;4597;48.730;9.114;2023-08-21T11:53:47;30.50;99.90
9125;DHT22;4597;48.730;9.114;2023-08-21T11:56:15;30.60;99.90
9125;DHT22;4597;48.730;9.114;2023-08-21T11:58:43;30.80;99.90
9125;DHT22;4597;48.730;9.114;2023-08-21T12:01:10;30.90;98.20
9125;DHT22;4597;48.730;9.114;2023-08-21T12:03:41;31.00;97.60
9125;DHT22;4597;48.730;9.114;2023-08-21T12:06:11;31.10;95.90
9125;DHT22;4597;48.730;9.114;2023-08-21T12:08:40;31.10;97.10
9125;DHT22;4597;48.730;9.114;2023-08-21T12:11:07;31.10;95.90
9125;DHT22;4597;48.730;9.114;2023-08-21T12:13:33;31.00;94.70
9125;DHT22;4597;48.730;9.114;2023-08-21T12:15:58;31.10;94.50
9125;DHT22;4597;48.730;9.114;2023-08-21T12:18:24;31.10;93.80
9125;DHT22;4597;48.730;9.114;2023-08-21T12:20:49;31.30;93.90
9125;DHT22;4597;48.730;9.114;2023-08-21T12:23:15;31.40;91.50
9125;DHT22;4597;48.730;9.114;2023-08-21T12:25:41;31.30;91.80
9125;DHT22;4597;48.730;9.114;2023-08-21T12:28:07;31.30;92.50
9125;DHT22;4597;48.730;9.114;2023-08-21T12:30:33;31.30;91.20
9125;DHT22;4597;48.730;9.114;2023-08-21T12:32:59;31.50;91.20
9125;DHT22;4597;48.730;9.114;2023-08-21T12:35:24;31.60;91.60
9125;DHT22;4597;48.730;9.114;2023-08-21T12:37:50;31.70;87.20
9125;DHT22;4597;48.730;9.114;2023-08-21T12:40:15;31.80;88.10
9125;DHT22;4597;48.730;9.114;2023-08-21T12:42:41;31.90;89.90
9125;DHT22;4597;48.730;9.114;2023-08-21T12:45:07;32.00;90.10
9125;DHT22;4597;48.730;9.114;2023-08-21T12:47:32;32.00;90.30
9125;DHT22;4597;48.730;9.114;2023-08-21T12:49:58;32.10;90.00
9125;DHT22;4597;48.730;9.114;2023-08-21T12:52:24;32.20;85.90
9125;DHT22;4597;48.730;9.114;2023-08-21T12:54:49;32.20;83.60
9125;DHT22;4597;48.730;9.114;2023-08-21T12:57:15;32.10;77.20
9125;DHT22;4597;48.730;9.114;2023-08-21T12:59:42;32.10;75.50
9125;DHT22;4597;48.730;9.114;2023-08-21T13:02:07;32.00;79.70
9125;DHT22;4597;48.730;9.114;2023-08-21T13:04:33;32.00;84.50
9125;DHT22;4597;48.730;9.114;2023-08-21T13:06:59;31.90;76.10
9125;DHT22;4597;48.730;9.114;2023-08-21T13:09:25;31.90;76.10
9125;DHT22;4597;48.730;9.114;2023-08-21T13:14:18;31.90;75.80
9125;DHT22;4597;48.730;9.114;2023-08-21T13:16:44;32.00;77.90
9125;DHT22;4597;48.730;9.114;2023-08-21T13:19:09;32.20;75.80
9125;DHT22;4597;48.730;9.114;2023-08-21T13:21:35;32.50;78.50
9125;DHT22;4597;48.730;9.114;2023-08-21T13:24:00;32.90;74.00
9125;DHT22;4597;48.730;9.114;2023-08-21T13:26:27;33.00;71.30
9125;DHT22;4597;48.730;9.114;2023-08-21T13:28:54;33.20;69.30
9125;DHT22;4597;48.730;9.114;2023-08-21T13:31:20;33.40;69.10
9125;DHT22;4597;48.730;9.114;2023-08-21T13:33:50;33.50;63.10
9125;DHT22;4597;48.730;9.114;2023-08-21T13:36:16;33.70;67.90
9125;DHT22;4597;48.730;9.114;2023-08-21T13:38:42;33.80;61.90
9125;DHT22;4597;48.730;9.114;2023-08-21T13:41:08;34.00;61.20
9125;DHT22;4597;48.730;9.114;2023-08-21T13:43:34;34.00;59.40
9125;DHT22;4597;48.730;9.114;2023-08-21T13:46:00;34.30;57.50
9125;DHT22;4597;48.730;9.114;2023-08-21T13:48:26;34.50;58.00
9125;DHT22;4597;48.730;9.114;2023-08-21T13:50:52;34.80;59.00
9125;DHT22;4597;48.730;9.114;2023-08-21T13:53:17;35.10;57.30
9125;DHT22;4597;48.730;9.114;2023-08-21T13:55:42;35.30;55.30
9125;DHT22;4597;48.730;9.114;2023-08-21T13:58:08;35.50;55.30
9125;DHT22;4597;48.730;9.114;2023-08-21T14:00:34;35.70;48.20
9125;DHT22;4597;48.730;9.114;2023-08-21T14:03:00;35.80;49.60
9125;DHT22;4597;48.730;9.114;2023-08-21T14:05:25;36.10;48.00
9125;DHT22;4597;48.730;9.114;2023-08-21T14:07:52;36.20;45.70
9125;DHT22;4597;48.730;9.114;2023-08-21T14:10:18;36.50;46.50
9125;DHT22;4597;48.730;9.114;2023-08-21T14:12:43;36.70;45.50
9125;DHT22;4597;48.730;9.114;2023-08-21T14:15:10;36.80;43.80
9125;DHT22;4597;48.730;9.114;2023-08-21T14:17:36;36.50;44.10
9125;DHT22;4597;48.730;9.114;2023-08-21T14:20:02;36.70;46.00
9125;DHT22;4597;48.730;9.114;2023-08-21T14:22:28;37.00;46.30
9125;DHT22;4597;48.730;9.114;2023-08-21T14:24:53;37.40;44.60
9125;DHT22;4597;48.730;9.114;2023-08-21T14:27:19;37.90;42.90
9125;DHT22;4597;48.730;9.114;2023-08-21T14:29:44;38.20;40.60
9125;DHT22;4597;48.730;9.114;2023-08-21T14:32:10;38.50;41.60
9125;DHT22;4597;48.730;9.114;2023-08-21T14:34:36;38.70;39.20
9125;DHT22;4597;48.730;9.114;2023-08-21T14:37:01;38.60;37.60
9125;DHT22;4597;48.730;9.114;2023-08-21T14:39:29;38.80;38.20
9125;DHT22;4597;48.730;9.114;2023-08-21T14:41:56;39.20;36.90
9125;DHT22;4597;48.730;9.114;2023-08-21T14:44:22;39.90;35.10
9125;DHT22;4597;48.730;9.114;2023-08-21T14:46:47;40.90;32.30
9125;DHT22;4597;48.730;9.114;2023-08-21T14:49:13;42.00;29.00
9125;DHT22;4597;48.730;9.114;2023-08-21T14:51:39;43.10;26.80
9125;DHT22;4597;48.730;9.114;2023-08-21T14:54:05;44.30;26.10
9125;DHT22;4597;48.730;9.114;2023-08-21T14:56:30;45.30;23.50
9125;DHT22;4597;48.730;9.114;2023-08-21T14:58:56;45.60;21.90
9125;DHT22;4597;48.730;9.114;2023-08-21T15:01:21;45.90;21.10
9125;DHT22;4597;48.730;9.114;2023-08-21T15:03:47;45.50;21.00
9125;DHT22;4597;48.730;9.114;2023-08-21T15:06:12;46.10;19.90
9125;DHT22;4597;48.730;9.114;2023-08-21T15:08:39;46.40;19.60
9125;DHT22;4597;48.730;9.114;2023-08-21T15:11:08;46.80;18.50
9125;DHT22;4597;48.730;9.114;2023-08-21T15:13:37;46.30;19.00
9125;DHT22;4597;48.730;9.114;2023-08-21T15:16:03;46.50;19.10
9125;DHT22;4597;48.730;9.114;2023-08-21T15:18:28;46.40;18.70
9125;DHT22;4597;48.730;9.114;2023-08-21T15:20:54;46.30;18.50
9125;DHT22;4597;48.730;9.114;2023-08-21T15:23:19;45.70;19.30
9125;DHT22;4597;48.730;9.114;2023-08-21T15:25:45;44.60;20.50
9125;DHT22;4597;48.730;9.114;2023-08-21T15:28:10;43.60;21.50
9125;DHT22;4597;48.730;9.114;2023-08-21T15:30:36;42.60;22.70
9125;DHT22;4597;48.730;9.114;2023-08-21T15:33:03;41.70;23.80
9125;DHT22;4597;48.730;9.114;2023-08-21T15:35:28;41.00;24.60
9125;DHT22;4597;48.730;9.114;2023-08-21T15:37:54;40.30;25.40
9125;DHT22;4597;48.730;9.114;2023-08-21T15:40:19;40.30;25.50
9125;DHT22;4597;48.730;9.114;2023-08-21T15:42:45;40.30;25.10
9125;DHT22;4597;48.730;9.114;2023-08-21T15:45:10;40.30;25.80
9125;DHT22;4597;48.730;9.114;2023-08-21T15:47:36;40.40;27.20
9125;DHT22;4597;48.730;9.114;2023-08-21T15:50:01;40.20;25.20
9125;DHT22;4597;48.730;9.114;2023-08-21T15:52:27;40.00;25.60
9125;DHT22;4597;48.730;9.114;2023-08-21T15:54:53;40.00;25.70
9125;DHT22;4597;48.730;9.114;2023-08-21T15:57:18;40.20;25.70
9125;DHT22;4597;48.730;9.114;2023-08-21T15:59:44;40.30;25.10
9125;DHT22;4597;48.730;9.114;2023-08-21T16:02:10;40.30;25.30
9125;DHT22;4597;48.730;9.114;2023-08-21T16:04:36;40.40;25.50
9125;DHT22;4597;48.730;9.114;2023-08-21T16:07:02;40.50;25.60
9125;DHT22;4597;48.730;9.114;2023-08-21T16:09:28;40.70;24.50
9125;DHT22;4597;48.730;9.114;2023-08-21T16:11:54;40.90;26.20